createdAt,value
2022-10-22T00:00:44.141Z,8.14
2022-10-22T00:03:11.791Z,8.17
2022-10-22T00:05:39.288Z,8.20
2022-10-22T00:08:06.599Z,8.02
2022-10-22T00:10:33.800Z,8.05
2022-10-22T00:13:01.163Z,8.15
2022-10-22T00:15:28.546Z,8.06
2022-10-22T00:17:55.863Z,8.09
2022-10-22T00:20:23.163Z,8.10
2022-10-22T00:25:17.988Z,8.15
2022-10-22T00:27:45.372Z,8.15
2022-10-22T00:30:12.936Z,8.14
2022-10-22T00:32:40.457Z,8.15
2022-10-22T00:35:08.381Z,8.01
2022-10-22T00:37:35.706Z,8.25
2022-10-22T00:40:04.571Z,8.38
2022-10-22T00:42:32.020Z,8.34
2022-10-22T00:45:11.229Z,8.35
2022-10-22T00:47:44.964Z,8.28
2022-10-22T00:50:17.365Z,8.26
2022-10-22T00:52:44.925Z,8.25
2022-10-22T00:55:13.691Z,8.29
2022-10-22T00:57:41.024Z,8.32
2022-10-22T01:00:09.138Z,8.30
2022-10-22T01:02:36.634Z,8.34
2022-10-22T01:05:06.157Z,8.26
2022-10-22T01:07:41.392Z,8.25
2022-10-22T01:10:08.448Z,8.45
2022-10-22T01:13:15.077Z,8.24
2022-10-22T01:16:07.598Z,8.13
2022-10-22T01:19:01.890Z,8.11
2022-10-22T01:21:41.360Z,8.06
2022-10-22T01:24:28.773Z,8.18
2022-10-22T01:27:08.055Z,8.17
2022-10-22T01:30:08.050Z,8.13
2022-10-22T01:32:42.014Z,8.09
2022-10-22T01:35:12.865Z,8.14
2022-10-22T01:37:49.329Z,8.23
2022-10-22T01:40:17.795Z,8.21
2022-10-22T01:43:05.136Z,8.24
2022-10-22T01:45:37.512Z,8.18
2022-10-22T01:48:34.140Z,8.07
2022-10-22T01:51:13.828Z,8.13
2022-10-22T01:53:59.837Z,8.29
2022-10-22T01:56:49.995Z,8.29
2022-10-22T01:59:42.008Z,8.21
2022-10-22T02:02:29.945Z,8.17
2022-10-22T02:05:07.399Z,8.09
2022-10-22T02:07:42.708Z,8.05
2022-10-22T02:10:12.098Z,7.97
2022-10-22T02:12:42.866Z,8.10
2022-10-22T02:15:34.084Z,8.02
2022-10-22T02:18:02.678Z,7.94
2022-10-22T02:20:35.554Z,7.95
2022-10-22T02:23:04.210Z,7.91
2022-10-22T02:25:36.837Z,7.92
2022-10-22T02:28:25.601Z,8.08
2022-10-22T02:31:00.926Z,8.09
2022-10-22T02:33:34.673Z,8.08
2022-10-22T02:36:03.606Z,7.95
2022-10-22T02:38:32.205Z,8.00
2022-10-22T02:40:59.551Z,8.02
2022-10-22T02:43:29.939Z,7.88
2022-10-22T02:45:57.879Z,7.84
2022-10-22T02:48:24.987Z,7.77
2022-10-22T02:50:52.279Z,7.74
2022-10-22T02:53:20.539Z,7.58
2022-10-22T02:55:47.796Z,7.70
2022-10-22T02:58:15.301Z,7.67
2022-10-22T03:00:42.886Z,7.62
2022-10-22T03:03:10.145Z,7.54
2022-10-22T03:05:37.500Z,7.47
2022-10-22T03:08:05.071Z,7.70
2022-10-22T03:10:32.270Z,7.73
2022-10-22T03:12:59.635Z,7.64
2022-10-22T03:17:55.478Z,7.60
2022-10-22T03:20:23.797Z,7.53
2022-10-22T03:22:51.500Z,7.59
2022-10-22T03:25:22.623Z,7.59
2022-10-22T03:27:52.661Z,7.52
2022-10-22T03:30:20.946Z,7.53
2022-10-22T03:32:49.907Z,7.69
2022-10-22T03:35:17.277Z,7.70
2022-10-22T03:37:44.668Z,7.70
2022-10-22T03:40:13.059Z,7.69
2022-10-22T03:42:42.090Z,7.69
2022-10-22T03:45:10.466Z,7.80
2022-10-22T03:47:37.948Z,7.74
2022-10-22T03:50:06.520Z,7.86
2022-10-22T03:52:40.604Z,8.01
2022-10-22T03:55:09.271Z,7.98
2022-10-22T03:57:38.016Z,7.99
2022-10-22T04:00:06.810Z,8.08
2022-10-22T04:02:34.194Z,8.13
2022-10-22T04:05:02.000Z,8.09
2022-10-22T04:07:31.365Z,8.25
2022-10-22T04:09:58.709Z,8.30
2022-10-22T04:12:26.449Z,8.30
2022-10-22T04:14:54.051Z,8.22
2022-10-22T04:17:21.251Z,8.22
2022-10-22T04:19:50.043Z,8.24
2022-10-22T04:22:20.057Z,8.26
2022-10-22T04:24:47.411Z,8.21
2022-10-22T04:27:15.185Z,8.26
2022-10-22T04:29:42.451Z,8.42
2022-10-22T04:32:12.231Z,8.48
2022-10-22T04:34:39.429Z,8.56
2022-10-22T04:37:08.291Z,8.55
2022-10-22T04:39:36.760Z,8.48
2022-10-22T04:42:04.494Z,8.37
2022-10-22T04:44:31.742Z,8.39
2022-10-22T04:46:59.448Z,8.35
2022-10-22T04:49:26.593Z,8.26
2022-10-22T04:51:54.116Z,8.27
2022-10-22T04:54:21.586Z,8.22
2022-10-22T04:56:48.900Z,8.19
2022-10-22T04:59:16.263Z,8.19
2022-10-22T05:01:46.137Z,8.08
2022-10-22T05:04:16.369Z,8.16
2022-10-22T05:06:44.130Z,8.13
2022-10-22T05:09:21.108Z,8.18
2022-10-22T05:11:54.049Z,8.22
2022-10-22T05:14:24.430Z,8.25
2022-10-22T05:16:52.497Z,8.28
2022-10-22T05:19:24.248Z,8.18
2022-10-22T05:21:53.676Z,8.30
2022-10-22T05:24:21.781Z,8.37
2022-10-22T05:26:51.084Z,8.36
2022-10-22T05:29:18.468Z,8.52
2022-10-22T05:31:46.077Z,8.53
2022-10-22T05:34:15.486Z,8.54
2022-10-22T05:36:42.704Z,8.58
2022-10-22T05:39:10.133Z,8.64
2022-10-22T05:41:38.423Z,8.74
2022-10-22T05:44:06.196Z,8.87
2022-10-22T05:46:36.976Z,8.89
2022-10-22T05:49:07.310Z,9.05
2022-10-22T05:51:37.327Z,9.20
2022-10-22T05:54:07.712Z,9.26
2022-10-22T05:56:35.839Z,9.52
2022-10-22T05:59:05.707Z,9.61
2022-10-22T06:01:37.759Z,9.68
2022-10-22T06:04:07.687Z,10.03
2022-10-22T06:06:38.423Z,10.13
2022-10-22T06:09:22.587Z,10.37
2022-10-22T06:11:51.068Z,10.33
2022-10-22T06:14:20.514Z,10.55
2022-10-22T06:16:47.806Z,10.56
2022-10-22T06:19:17.518Z,10.50
2022-10-22T06:21:45.721Z,10.52
2022-10-22T06:24:14.093Z,10.47
2022-10-22T06:26:42.025Z,10.60
2022-10-22T06:29:09.961Z,10.55
2022-10-22T06:31:37.454Z,10.65
2022-10-22T06:34:06.840Z,10.74
2022-10-22T06:36:35.059Z,10.79
2022-10-22T06:39:02.572Z,10.78
2022-10-22T06:41:29.852Z,10.58
2022-10-22T06:43:58.213Z,10.49
2022-10-22T06:46:26.341Z,10.61
2022-10-22T06:49:00.962Z,10.75
2022-10-22T06:51:31.650Z,10.79
2022-10-22T06:53:59.654Z,10.75
2022-10-22T06:56:30.040Z,10.80
2022-10-22T06:58:58.550Z,10.94
2022-10-22T07:01:32.930Z,11.04
2022-10-22T07:04:01.044Z,11.12
2022-10-22T07:06:29.548Z,11.30
2022-10-22T07:08:59.065Z,11.32
2022-10-22T07:11:29.956Z,11.49
2022-10-22T07:14:01.532Z,11.51
2022-10-22T07:16:32.033Z,11.47
2022-10-22T07:19:41.377Z,11.48
2022-10-22T07:22:08.695Z,11.59
2022-10-22T07:24:36.040Z,11.48
2022-10-22T07:27:05.045Z,11.56
2022-10-22T07:29:33.373Z,11.69
2022-10-22T07:32:00.556Z,11.54
2022-10-22T07:34:27.933Z,11.61
2022-10-22T07:36:56.846Z,11.65
2022-10-22T07:39:25.938Z,11.99
2022-10-22T07:41:53.348Z,12.05
2022-10-22T07:44:20.529Z,12.17
2022-10-22T07:46:48.972Z,12.41
2022-10-22T07:49:16.515Z,12.50
2022-10-22T07:51:43.738Z,12.63
2022-10-22T07:54:11.024Z,12.66
2022-10-22T07:56:38.713Z,12.56
2022-10-22T07:59:06.010Z,12.44
2022-10-22T08:01:33.321Z,12.60
2022-10-22T08:04:00.552Z,12.44
2022-10-22T08:06:27.932Z,12.61
2022-10-22T08:08:55.109Z,12.64
2022-10-22T08:11:22.355Z,12.56
2022-10-22T08:13:49.494Z,12.50
2022-10-22T08:16:16.759Z,12.61
2022-10-22T08:18:45.897Z,12.81
2022-10-22T08:21:13.950Z,13.00
2022-10-22T08:23:41.931Z,12.79
2022-10-22T08:26:10.238Z,13.02
2022-10-22T08:28:37.909Z,13.04
2022-10-22T08:31:07.720Z,13.05
2022-10-22T08:33:35.154Z,13.11
2022-10-22T08:36:02.697Z,13.14
2022-10-22T08:38:31.655Z,13.14
2022-10-22T08:41:21.850Z,13.26
2022-10-22T08:44:26.086Z,13.25
2022-10-22T08:47:18.742Z,13.16
2022-10-22T08:49:48.878Z,13.31
2022-10-22T08:52:19.812Z,13.40
2022-10-22T08:54:59.493Z,13.53
2022-10-22T08:57:46.621Z,13.51
2022-10-22T09:00:33.328Z,13.54
2022-10-22T09:03:27.955Z,13.60
2022-10-22T09:05:59.507Z,13.66
2022-10-22T09:08:26.927Z,13.70
2022-10-22T09:11:14.626Z,13.72
2022-10-22T09:13:43.780Z,13.61
2022-10-22T09:16:19.986Z,13.71
2022-10-22T09:19:35.417Z,13.70
2022-10-22T09:22:13.034Z,13.65
2022-10-22T09:24:47.022Z,13.75
2022-10-22T09:27:28.499Z,13.99
2022-10-22T09:29:55.713Z,14.06
2022-10-22T09:32:23.515Z,14.12
2022-10-22T09:34:55.512Z,14.21
2022-10-22T09:37:27.134Z,14.44
2022-10-22T09:39:55.798Z,14.49
2022-10-22T09:42:23.919Z,14.58
2022-10-22T09:44:57.721Z,14.62
2022-10-22T09:47:42.630Z,14.39
2022-10-22T09:50:27.552Z,14.20
2022-10-22T09:53:03.425Z,14.21
2022-10-22T09:55:30.743Z,14.26
2022-10-22T09:58:00.596Z,14.26
2022-10-22T10:00:28.678Z,13.97
2022-10-22T10:03:00.829Z,13.62
2022-10-22T10:05:36.940Z,13.31
2022-10-22T10:08:15.944Z,13.11
2022-10-22T10:10:51.931Z,13.00
2022-10-22T10:14:16.083Z,13.05
2022-10-22T10:17:01.386Z,12.99
2022-10-22T10:19:34.368Z,12.89
2022-10-22T10:22:20.980Z,12.86
2022-10-22T10:25:11.556Z,12.80
2022-10-22T10:27:43.601Z,12.73
2022-10-22T10:30:18.281Z,12.44
2022-10-22T10:32:55.455Z,12.66
2022-10-22T10:35:48.087Z,12.49
2022-10-22T10:38:41.835Z,12.31
2022-10-22T10:41:33.655Z,12.35
2022-10-22T10:44:22.670Z,12.13
2022-10-22T10:47:27.463Z,12.27
2022-10-22T10:50:01.121Z,12.32
2022-10-22T10:52:33.450Z,12.51
2022-10-22T10:55:13.625Z,12.72
2022-10-22T10:57:58.108Z,12.92
2022-10-22T11:00:25.592Z,12.98
2022-10-22T11:03:30.467Z,13.26
2022-10-22T11:06:07.996Z,13.32
2022-10-22T11:08:42.074Z,13.40
2022-10-22T11:13:56.891Z,13.23
2022-10-22T11:16:32.812Z,13.11
2022-10-22T11:19:15.528Z,13.18
2022-10-22T11:22:26.481Z,13.17
2022-10-22T11:25:25.245Z,13.27
2022-10-22T11:28:05.652Z,13.24
2022-10-22T11:30:38.146Z,13.33
2022-10-22T11:33:15.148Z,13.36
2022-10-22T11:35:45.045Z,13.53
2022-10-22T11:38:16.584Z,13.68
2022-10-22T11:40:57.119Z,13.69
2022-10-22T11:43:52.773Z,13.48
2022-10-22T11:46:20.063Z,13.65
2022-10-22T11:49:21.763Z,13.65
2022-10-22T11:51:50.112Z,13.60
2022-10-22T11:54:31.055Z,13.62
2022-10-22T11:57:13.538Z,13.78
2022-10-22T12:00:01.561Z,14.14
2022-10-22T12:02:42.318Z,14.17
2022-10-22T12:05:26.071Z,14.34
2022-10-22T12:08:21.987Z,14.48
2022-10-22T12:10:58.542Z,14.57
2022-10-22T12:13:32.053Z,14.57
2022-10-22T12:16:03.981Z,14.48
2022-10-22T12:18:40.511Z,14.28
2022-10-22T12:21:14.455Z,14.28
2022-10-22T12:23:42.678Z,14.48
2022-10-22T12:26:27.852Z,14.60
2022-10-22T12:28:59.942Z,14.46
2022-10-22T12:31:28.983Z,14.62
2022-10-22T12:34:00.472Z,14.66
2022-10-22T12:36:29.080Z,14.65
2022-10-22T12:39:00.862Z,14.65
2022-10-22T12:41:36.820Z,14.82
2022-10-22T12:44:05.582Z,14.98
2022-10-22T12:46:36.830Z,14.88
2022-10-22T12:49:08.745Z,14.82
2022-10-22T12:51:36.477Z,14.66
2022-10-22T12:54:26.237Z,14.73
2022-10-22T12:56:55.650Z,14.71
2022-10-22T12:59:36.203Z,14.64
2022-10-22T13:02:13.546Z,14.61
2022-10-22T13:04:41.407Z,14.57
2022-10-22T13:07:18.441Z,14.39
2022-10-22T13:09:49.123Z,14.35
2022-10-22T13:12:26.441Z,14.27
2022-10-22T13:14:54.206Z,14.42
2022-10-22T13:17:40.224Z,14.60
2022-10-22T13:20:23.808Z,14.66
2022-10-22T13:23:03.420Z,14.63
2022-10-22T13:25:33.544Z,14.55
2022-10-22T13:28:20.357Z,14.51
2022-10-22T13:30:58.472Z,14.49
2022-10-22T13:33:34.484Z,14.39
2022-10-22T13:36:02.052Z,14.19
2022-10-22T13:38:29.616Z,14.28
2022-10-22T13:40:57.769Z,14.37
2022-10-22T13:43:25.633Z,14.32
2022-10-22T13:45:57.942Z,14.22
2022-10-22T13:48:26.544Z,13.96
2022-10-22T13:50:54.932Z,13.84
2022-10-22T13:53:28.453Z,13.58
2022-10-22T13:55:55.644Z,13.44
2022-10-22T13:58:25.253Z,13.25
2022-10-22T14:00:57.213Z,13.19
2022-10-22T14:03:34.812Z,13.08
2022-10-22T14:06:02.275Z,12.91
2022-10-22T14:08:29.637Z,12.70
2022-10-22T14:10:56.915Z,12.53
2022-10-22T14:13:24.150Z,12.47
2022-10-22T14:15:52.723Z,12.25
2022-10-22T14:18:29.152Z,12.17
2022-10-22T14:21:00.483Z,12.02
2022-10-22T14:23:31.134Z,11.96
2022-10-22T14:26:01.066Z,11.97
2022-10-22T14:28:31.347Z,11.78
2022-10-22T14:30:59.131Z,11.81
2022-10-22T14:33:35.467Z,11.73
2022-10-22T14:36:03.313Z,11.61
2022-10-22T14:38:30.804Z,11.54
2022-10-22T14:40:59.951Z,11.49
2022-10-22T14:43:31.394Z,11.41
2022-10-22T14:45:58.903Z,11.29
2022-10-22T14:48:26.022Z,11.26
2022-10-22T14:50:54.848Z,11.24
2022-10-22T14:53:22.053Z,11.16
2022-10-22T14:55:51.632Z,11.18
2022-10-22T14:58:19.138Z,11.13
2022-10-22T15:00:46.315Z,11.08
2022-10-22T15:03:13.690Z,11.06
2022-10-22T15:05:45.161Z,11.06
2022-10-22T15:08:14.663Z,11.15
2022-10-22T15:10:42.301Z,11.09
2022-10-22T15:13:10.026Z,11.09
2022-10-22T15:15:40.336Z,11.15
2022-10-22T15:18:08.597Z,11.02
2022-10-22T15:20:36.109Z,11.05
2022-10-22T15:23:03.818Z,11.06
2022-10-22T15:25:31.010Z,11.06
2022-10-22T15:28:01.839Z,11.07
2022-10-22T15:30:34.894Z,11.12
2022-10-22T15:33:02.469Z,11.03
2022-10-22T15:35:29.726Z,11.08
2022-10-22T15:37:56.929Z,10.92
2022-10-22T15:40:24.269Z,11.10
2022-10-22T15:42:51.643Z,11.09
2022-10-22T15:45:21.430Z,11.14
2022-10-22T15:47:49.650Z,11.15
2022-10-22T15:50:18.130Z,11.21
2022-10-22T15:52:45.266Z,11.19
2022-10-22T15:57:40.891Z,11.24
2022-10-22T16:00:09.000Z,11.30
2022-10-22T16:02:42.635Z,11.33
2022-10-22T16:05:10.374Z,11.32
2022-10-22T16:07:37.535Z,11.26
2022-10-22T16:10:07.851Z,11.26
2022-10-22T16:12:36.392Z,11.36
2022-10-22T16:15:07.851Z,11.30
2022-10-22T16:17:35.157Z,11.34
2022-10-22T16:20:02.403Z,11.41
2022-10-22T16:22:30.336Z,11.43
2022-10-22T16:24:58.752Z,11.44
2022-10-22T16:27:25.913Z,11.42
2022-10-22T16:29:53.297Z,11.39
2022-10-22T16:32:20.777Z,11.41
2022-10-22T16:34:47.998Z,11.45
2022-10-22T16:37:15.246Z,11.31
2022-10-22T16:39:42.505Z,11.41
2022-10-22T16:42:09.805Z,11.39
2022-10-22T16:44:37.079Z,11.37
2022-10-22T16:47:04.319Z,11.43
2022-10-22T16:49:31.471Z,11.47
2022-10-22T16:51:58.940Z,11.50
2022-10-22T16:54:26.388Z,11.48
2022-10-22T16:56:53.614Z,11.46
2022-10-22T16:59:20.896Z,11.43
2022-10-22T17:01:48.187Z,11.44
2022-10-22T17:04:17.697Z,11.54
2022-10-22T17:06:45.049Z,11.60
2022-10-22T17:09:12.320Z,11.69
2022-10-22T17:11:42.604Z,11.74
2022-10-22T17:14:11.614Z,11.76
2022-10-22T17:16:39.041Z,11.80
2022-10-22T17:19:06.493Z,11.96
2022-10-22T17:21:34.288Z,12.17
2022-10-22T17:24:01.541Z,12.31
2022-10-22T17:26:28.766Z,12.34
2022-10-22T17:28:56.296Z,12.21
2022-10-22T17:31:33.075Z,12.41
2022-10-22T17:34:00.519Z,12.48
2022-10-22T17:36:33.216Z,12.50
2022-10-22T17:39:06.471Z,12.43
2022-10-22T17:41:36.750Z,12.49
2022-10-22T17:44:06.822Z,12.45
2022-10-22T17:46:34.121Z,12.39
2022-10-22T17:49:08.362Z,12.36
2022-10-22T17:51:36.348Z,12.18
2022-10-22T17:54:07.315Z,12.09
2022-10-22T17:56:37.828Z,11.96
2022-10-22T17:59:05.360Z,11.89
2022-10-22T18:01:36.567Z,11.81
2022-10-22T18:04:06.647Z,11.74
2022-10-22T18:06:36.821Z,11.61
2022-10-22T18:09:06.207Z,11.58
2022-10-22T18:11:36.229Z,11.70
2022-10-22T18:14:04.975Z,11.86
2022-10-22T18:16:32.559Z,12.00
2022-10-22T18:19:00.117Z,12.32
2022-10-22T18:21:29.336Z,12.36
2022-10-22T18:23:59.601Z,12.50
2022-10-22T18:26:28.034Z,12.47
2022-10-22T18:28:57.261Z,12.26
2022-10-22T18:31:28.448Z,12.24
2022-10-22T18:33:56.198Z,12.07
2022-10-22T18:36:26.936Z,11.91
2022-10-22T18:38:57.128Z,11.79
2022-10-22T18:41:25.173Z,11.62
2022-10-22T18:44:01.438Z,11.57
2022-10-22T18:46:30.495Z,11.49
2022-10-22T18:49:00.007Z,11.47
2022-10-22T18:51:32.984Z,11.42
2022-10-22T18:54:22.128Z,11.40
2022-10-22T18:56:47.996Z,11.37
2022-10-22T18:59:21.639Z,11.40
2022-10-22T19:01:49.673Z,11.34
2022-10-22T19:04:16.979Z,11.28
2022-10-22T19:06:47.737Z,11.15
2022-10-22T19:09:16.395Z,11.17
2022-10-22T19:11:48.076Z,11.03
2022-10-22T19:14:20.062Z,11.00
2022-10-22T19:16:47.172Z,10.98
2022-10-22T19:19:18.489Z,10.91
2022-10-22T19:21:47.892Z,10.86
2022-10-22T19:24:18.712Z,10.93
2022-10-22T19:26:49.827Z,10.83
2022-10-22T19:29:19.679Z,10.82
2022-10-22T19:31:47.695Z,10.82
2022-10-22T19:34:15.232Z,10.83
2022-10-22T19:36:43.068Z,10.84
2022-10-22T19:39:10.843Z,10.83
2022-10-22T19:41:39.005Z,10.86
2022-10-22T19:44:06.358Z,10.88
2022-10-22T19:46:33.882Z,10.98
2022-10-22T19:49:03.677Z,11.01
2022-10-22T19:51:33.536Z,11.09
2022-10-22T19:54:07.195Z,11.14
2022-10-22T19:56:36.309Z,11.38
2022-10-22T19:59:05.007Z,11.47
2022-10-22T20:01:33.642Z,11.47
2022-10-22T20:04:04.542Z,11.75
2022-10-22T20:06:32.604Z,11.80
2022-10-22T20:09:00.985Z,11.96
2022-10-22T20:11:31.088Z,12.02
2022-10-22T20:13:59.201Z,11.98
2022-10-22T20:16:30.253Z,12.04
2022-10-22T20:19:04.326Z,12.23
2022-10-22T20:21:31.595Z,12.33
2022-10-22T20:23:59.445Z,12.35
2022-10-22T20:26:31.928Z,12.49
2022-10-22T20:28:59.290Z,12.49
2022-10-22T20:31:28.870Z,12.53
2022-10-22T20:34:01.589Z,12.52
2022-10-22T20:36:31.593Z,12.56
2022-10-22T20:39:06.446Z,12.68
2022-10-22T20:41:35.353Z,12.72
2022-10-22T20:44:02.652Z,12.61
2022-10-22T20:46:32.280Z,12.86
2022-10-22T20:49:03.557Z,12.92
2022-10-22T20:51:30.760Z,12.90
2022-10-22T20:53:58.570Z,12.75
2022-10-22T20:56:26.690Z,12.77
2022-10-22T20:59:04.324Z,12.68
2022-10-22T21:01:44.713Z,12.49
2022-10-22T21:04:14.525Z,12.62
2022-10-22T21:06:43.557Z,12.50
2022-10-22T21:09:14.021Z,12.53
2022-10-22T21:11:45.225Z,12.68
2022-10-22T21:14:15.883Z,12.45
2022-10-22T21:16:54.096Z,12.50
2022-10-22T21:19:23.897Z,12.36
2022-10-22T21:21:51.117Z,12.31
2022-10-22T21:24:19.879Z,12.08
2022-10-22T21:26:47.106Z,12.08
2022-10-22T21:29:17.243Z,12.06
2022-10-22T21:31:44.580Z,12.09
2022-10-22T21:34:15.088Z,12.14
2022-10-22T21:36:45.139Z,12.21
2022-10-22T21:39:13.718Z,12.41
2022-10-22T21:41:42.519Z,12.26
2022-10-22T21:44:10.271Z,12.44
2022-10-22T21:46:37.643Z,12.33
2022-10-22T21:49:06.067Z,12.44
2022-10-22T21:51:37.387Z,12.44
2022-10-22T21:54:05.234Z,12.44
2022-10-22T21:56:34.913Z,12.60
2022-10-22T21:59:03.803Z,12.77
2022-10-22T22:01:31.223Z,12.88
2022-10-22T22:03:59.050Z,12.91
2022-10-22T22:06:30.787Z,12.94
2022-10-22T22:09:00.322Z,13.14
2022-10-22T22:11:28.863Z,13.17
2022-10-22T22:13:58.400Z,13.24
2022-10-22T22:16:28.973Z,13.27
2022-10-22T22:18:59.379Z,13.25
2022-10-22T22:21:26.955Z,13.04
2022-10-22T22:23:54.103Z,13.03
2022-10-22T22:26:26.967Z,12.92
2022-10-22T22:28:58.425Z,12.98
2022-10-22T22:31:28.709Z,13.14
2022-10-22T22:34:04.447Z,12.77
2022-10-22T22:36:37.731Z,12.76
2022-10-22T22:39:08.790Z,12.44
2022-10-22T22:41:36.173Z,12.61
2022-10-22T22:44:05.391Z,12.47
2022-10-22T22:46:32.927Z,12.55
2022-10-22T22:49:00.600Z,12.48
2022-10-22T22:51:29.277Z,12.12
2022-10-22T22:54:00.607Z,11.98
2022-10-22T22:56:29.920Z,11.90
2022-10-22T22:58:57.868Z,11.98
2022-10-22T23:01:27.178Z,11.86
2022-10-22T23:03:59.125Z,12.05
2022-10-22T23:06:28.521Z,12.14
2022-10-22T23:08:57.439Z,12.24
2022-10-22T23:11:26.787Z,12.41
2022-10-22T23:14:01.454Z,12.58
2022-10-22T23:16:32.651Z,12.85
2022-10-22T23:19:01.215Z,13.01
2022-10-22T23:21:35.438Z,13.11
2022-10-22T23:24:06.553Z,13.26
2022-10-22T23:26:37.235Z,13.26
2022-10-22T23:29:24.710Z,13.43
2022-10-22T23:31:52.969Z,13.48
2022-10-22T23:34:23.319Z,13.54
2022-10-22T23:36:52.730Z,13.62
2022-10-22T23:39:23.391Z,13.61
2022-10-22T23:41:53.283Z,13.50
2022-10-22T23:44:23.833Z,13.44
2022-10-22T23:46:51.389Z,13.35
2022-10-22T23:49:19.108Z,13.08
2022-10-22T23:51:46.560Z,13.07
2022-10-22T23:54:16.773Z,12.85
2022-10-22T23:56:44.924Z,12.67
